Chicago, Illinois
Traffic Map
Current Weather Conditions
Chicago, Illinois
Scattered Clouds
Scattered Clouds
88°
Feels Like: 89°
Wind Chill: 88° Ceiling: Unl
Heat Index: 89° Visibility: 10mi
Dew Point: 63° Wind: 7mph
Humidity: 43% Direction: 210° (SSW)
Pressure: 29.97in Gusts: 0mph
Raw Report DataKMDW 271853Z 21006KT 10SM SCT065 SCT250 31/17 A2997 RMK AO2 SLP138 T03110172
Traffic Incident Summary
Active as of:
Severity:
Category:
InformationThere was an issue retrieving the traffic information for this location. Please try a different location or try again shortly.
Advertisements
Track Severe Weather on mobile